This is the latest recevied weather packets stored in our database for station/object EW2310. If no packets are shown the sender has not sent any weather packets the latest 10 day(s).
| Time | Temp. | Humidity | Pressure | Rain* | Wind** | Luminosity | Snow |
|---|---|---|---|---|---|---|---|
| 1777439142 | 15.56° C | 55% | 1013.8 hPa | 0 mm | - | 107 W/m² | - |
| 1777437642 | 14.44° C | 58% | 1013.7 hPa | 0 mm | - | 37 W/m² | - |
| 1777436142 | 13.89° C | 59% | 1013.5 hPa | 0 mm | - | 7 W/m² | - |
| 1777435542 | 13.89° C | 60% | 1013.5 hPa | 0 mm | - | 0 W/m² | - |
| 1777433742 | 13.89° C | 60% | 1013.5 hPa | 0 mm | - | 0 W/m² | - |
| 1777431942 | 13.33° C | 63% | 1013.6 hPa | 0 mm | - | 0 W/m² | - |
| 1777430142 | 13.89° C | 64% | 1013.7 hPa | 0 mm | - | 0 W/m² | - |
| 1777429845 | 13.89° C | 63% | 1013.6 hPa | 0 mm | - | 0 W/m² | - |
| 1777428643 | 14.44° C | 62% | 1013.6 hPa | 0 mm | - | 0 W/m² | - |
| 1777427442 | 14.44° C | 58% | 1013.5 hPa | 0 mm | - | 0 W/m² | - |
| 1777425642 | 14.44° C | 59% | 1013.4 hPa | 0 mm | - | 0 W/m² | - |
| 1777424742 | 13.89° C | 68% | 1013.4 hPa | 0 mm | - | 0 W/m² | - |
| 1777424442 | 13.89° C | 69% | 1013.4 hPa | 0 mm | - | 0 W/m² | - |
| 1777422345 | 12.78° C | 65% | 1013.7 hPa | 0 mm | - | 0 W/m² | - |
| 1777420842 | 13.89° C | 67% | 1013.8 hPa | 0 mm | - | 0 W/m² | - |
| 1777417542 | 16.67° C | 51% | 1013.9 hPa | 0 mm | - | 0 W/m² | - |
| 1777416645 | 16.67° C | 50% | 1013.8 hPa | 0 mm | - | 0 W/m² | - |
| 1777413342 | 17.22° C | 45% | 1013.6 hPa | 0 mm | - | 0 W/m² | - |
| 1777408542 | 16.67° C | 61% | 1013.6 hPa | 0 mm | - | 0 W/m² | - |
| 1777406742 | 16.67° C | 64% | 1013.7 hPa | 0 mm | - | 0 W/m² | - |
| 1777405842 | 16.67° C | 64% | 1013.8 hPa | 0 mm | - | 0 W/m² | - |
| 1777404942 | 17.22° C | 64% | 1013.8 hPa | 0 mm | - | 0 W/m² | - |
| 1777403442 | 17.78° C | 64% | 1013.9 hPa | 0 mm | - | 0 W/m² | - |
| 1777403142 | 17.78° C | 66% | 1013.8 hPa | 0 mm | - | 0 W/m² | - |
| 1777401042 | 17.78° C | 63% | 1013.6 hPa | 0 mm | - | 0 W/m² | - |
* Rain latest hour (hover to see other rain measurements)
** Current wind speed in m/s (hover to see current wind gust speed)